KFOZ

Bigfork Municipal Airport

Bigfork, Minnesota, USA
METAR KFOZ 181113Z AUTO 20010G14KT 10SM CLR 02/M03 A3016 RMK AO2
Observed Flight Rules
Oct-18 @ 11:13 UTC (21 minutes ago) Visual Flight Rules
Wind Visibility Clouds
200° at 10 knots
 Gusting to 14 knots
10 miles
  • Clear skies
Temperatures Readings
Current 2°C / 36°F
Dewpoint -3°C / 27°F
Humidity 70%
Altimeter 30.16" Hg
Pressure 1021 hPa
Elevation 411
METAR KFOZ 181113Z AUTO 20010G14KT 10SM CLR 02/M03 A3016 RMK AO2
Observed Flight Rules
Oct-18 @ 11:13 UTC
(21 minutes ago)
VFR
Wind Visibility
200° at 10 knots
 Gusting to 14 knots
10 miles
Clouds
  • Clear skies
Temperature Dewpoint
2°C / 36°F -3°C / 27°F
Humidity Altimeter Pressure
70% 30.16" Hg 1021 hPa